createdAt,value
2019-01-30T00:02:35.838Z,73.74
2019-01-30T00:07:30.416Z,74.29
2019-01-30T00:12:25.010Z,73.07
2019-01-30T00:17:19.676Z,73.11
2019-01-30T00:22:14.264Z,73.53
2019-01-30T00:27:08.861Z,73.77
2019-01-30T00:32:03.434Z,73.61
2019-01-30T00:36:58.036Z,73.56
2019-01-30T00:41:52.619Z,73.13
2019-01-30T00:46:47.220Z,72.44
2019-01-30T00:51:41.885Z,72.16
2019-01-30T00:56:36.443Z,72.06
2019-01-30T01:01:31.094Z,71.45
2019-01-30T01:06:25.741Z,71.65
2019-01-30T01:11:20.330Z,72.15
2019-01-30T01:16:14.999Z,70.46
2019-01-30T01:21:09.571Z,71.82
2019-01-30T01:26:04.340Z,70.85
2019-01-30T01:30:58.943Z,70.51
2019-01-30T01:35:53.541Z,70.68
2019-01-30T01:40:48.159Z,70.61
2019-01-30T01:45:42.722Z,69.12
2019-01-30T01:50:37.319Z,69.03
2019-01-30T01:55:31.891Z,69.84
2019-01-30T02:00:35.291Z,68.18
2019-01-30T02:05:24.833Z,69.70
2019-01-30T02:10:25.278Z,70.95
2019-01-30T02:15:22.750Z,71.55
2019-01-30T02:20:30.697Z,70.88
2019-01-30T02:25:25.366Z,70.49
2019-01-30T02:30:28.705Z,70.72
2019-01-30T02:35:23.863Z,71.42
2019-01-30T02:40:22.022Z,70.63
2019-01-30T02:45:23.287Z,71.12
2019-01-30T02:50:20.079Z,71.29
2019-01-30T02:55:17.280Z,71.52
2019-01-30T03:00:34.441Z,71.75
2019-01-30T03:05:29.348Z,71.49
2019-01-30T03:10:24.739Z,72.89
2019-01-30T03:15:21.451Z,73.66
2019-01-30T03:20:25.335Z,74.87
2019-01-30T03:25:22.742Z,74.53
2019-01-30T03:30:24.101Z,74.79
2019-01-30T03:35:19.212Z,74.85
2019-01-30T03:40:17.903Z,74.09
2019-01-30T03:45:16.692Z,74.29
2019-01-30T03:50:14.462Z,74.97
2019-01-30T03:55:18.123Z,74.97
2019-01-30T04:00:22.992Z,73.57
2019-01-30T04:05:17.761Z,72.41
2019-01-30T04:10:17.088Z,72.65
2019-01-30T04:15:11.854Z,73.08
2019-01-30T04:20:16.527Z,71.92
2019-01-30T04:25:11.823Z,71.94
2019-01-30T04:30:22.750Z,72.08
2019-01-30T04:35:18.235Z,72.30
2019-01-30T04:40:17.307Z,71.92
2019-01-30T04:45:19.024Z,72.46
2019-01-30T04:50:13.932Z,71.59
2019-01-30T04:55:10.410Z,72.36
2019-01-30T05:00:12.492Z,72.36
2019-01-30T05:05:10.976Z,72.21
2019-01-30T05:10:10.084Z,71.95
2019-01-30T05:15:08.039Z,71.13
2019-01-30T05:20:02.651Z,72.14
2019-01-30T05:24:57.229Z,72.52
2019-01-30T05:29:51.874Z,71.69
2019-01-30T05:34:46.484Z,72.18
2019-01-30T05:39:41.078Z,73.04
2019-01-30T05:44:35.673Z,73.19
2019-01-30T05:49:30.282Z,73.21
2019-01-30T05:54:24.858Z,72.74
2019-01-30T05:59:19.518Z,72.49
2019-01-30T06:04:14.144Z,72.82
2019-01-30T06:09:08.967Z,72.67
2019-01-30T06:14:03.682Z,72.72
2019-01-30T06:18:58.253Z,72.65
2019-01-30T06:23:52.842Z,71.87
2019-01-30T06:28:47.564Z,71.39
2019-01-30T06:33:42.232Z,71.82
2019-01-30T06:38:36.834Z,70.75
2019-01-30T06:43:31.427Z,71.03
2019-01-30T06:48:26.080Z,71.34
2019-01-30T06:53:20.790Z,71.40
2019-01-30T06:58:15.406Z,71.80
2019-01-30T07:03:09.995Z,72.65
2019-01-30T07:08:04.657Z,72.32
2019-01-30T07:12:59.318Z,71.12
2019-01-30T07:17:54.167Z,70.63
2019-01-30T07:22:48.977Z,70.94
2019-01-30T07:27:43.702Z,70.33
2019-01-30T07:32:42.316Z,69.28
2019-01-30T07:37:35.581Z,69.01
2019-01-30T07:42:30.525Z,68.06
2019-01-30T07:47:25.190Z,67.88
2019-01-30T07:52:20.867Z,66.91
2019-01-30T07:57:16.043Z,66.41
2019-01-30T08:02:10.718Z,66.02
2019-01-30T08:07:05.544Z,65.15
2019-01-30T08:12:00.996Z,64.44
2019-01-30T08:16:56.264Z,63.41
2019-01-30T08:21:56.807Z,62.52
2019-01-30T08:26:52.099Z,60.84
2019-01-30T08:31:47.157Z,59.83
2019-01-30T08:36:42.167Z,58.68
2019-01-30T08:41:37.046Z,58.06
2019-01-30T08:46:31.746Z,57.64
2019-01-30T08:51:36.507Z,56.80
2019-01-30T08:56:52.448Z,56.03
2019-01-30T09:01:45.684Z,55.40
2019-01-30T09:06:55.424Z,54.92
2019-01-30T09:11:58.885Z,54.30
2019-01-30T09:16:53.511Z,53.93
2019-01-30T09:21:51.863Z,53.69
2019-01-30T09:26:47.107Z,52.66
2019-01-30T09:31:42.072Z,52.52
2019-01-30T09:36:36.873Z,51.69
2019-01-30T09:41:31.475Z,51.19
2019-01-30T09:46:26.067Z,50.93
2019-01-30T09:51:21.064Z,51.65
2019-01-30T09:56:15.769Z,50.53
2019-01-30T10:01:10.420Z,49.98
2019-01-30T10:06:05.337Z,50.36
2019-01-30T10:11:00.419Z,49.59
2019-01-30T10:15:55.531Z,50.21
2019-01-30T10:20:50.300Z,50.66
2019-01-30T10:25:45.391Z,50.96
2019-01-30T10:30:43.826Z,51.00
2019-01-30T10:35:38.612Z,51.20
2019-01-30T10:40:33.479Z,51.59
2019-01-30T10:45:28.373Z,52.98
2019-01-30T10:50:29.442Z,54.22
2019-01-30T10:55:38.887Z,55.01
2019-01-30T11:00:41.108Z,56.03
2019-01-30T11:05:35.878Z,56.14
2019-01-30T11:10:30.459Z,56.07
2019-01-30T11:15:28.858Z,55.81
2019-01-30T11:20:23.808Z,55.90
2019-01-30T11:25:25.575Z,56.24
2019-01-30T11:30:22.699Z,56.74
2019-01-30T11:35:17.526Z,56.20
2019-01-30T11:40:22.086Z,56.30
2019-01-30T11:45:38.486Z,55.73
2019-01-30T11:50:33.424Z,56.51
2019-01-30T11:55:28.166Z,56.53
2019-01-30T12:00:28.736Z,56.55
2019-01-30T12:05:23.350Z,55.86
2019-01-30T12:10:18.109Z,56.43
2019-01-30T12:15:22.737Z,56.56
2019-01-30T12:20:17.640Z,55.95
2019-01-30T12:25:16.595Z,55.78
2019-01-30T12:30:19.287Z,56.22
2019-01-30T12:35:14.088Z,57.15
2019-01-30T12:40:13.829Z,56.58
2019-01-30T12:45:30.860Z,56.76
2019-01-30T12:50:25.594Z,58.52
2019-01-30T12:55:21.557Z,59.21
2019-01-30T13:00:24.049Z,59.75
2019-01-30T13:05:20.588Z,59.19
2019-01-30T13:10:15.384Z,57.97
2019-01-30T13:15:17.533Z,56.93
2019-01-30T13:20:19.688Z,56.18
2019-01-30T13:25:18.837Z,56.78
2019-01-30T13:30:23.942Z,57.28
2019-01-30T13:35:18.617Z,55.86
2019-01-30T13:40:17.777Z,56.61
2019-01-30T13:45:13.962Z,56.60
2019-01-30T13:50:16.396Z,56.36
2019-01-30T13:55:12.562Z,57.08
2019-01-30T14:00:33.291Z,56.86
2019-01-30T14:05:34.444Z,57.13
2019-01-30T14:10:30.031Z,55.79
2019-01-30T14:15:29.216Z,56.64
2019-01-30T14:20:23.936Z,55.33
2019-01-30T14:25:18.747Z,56.56
2019-01-30T14:30:23.122Z,56.79
2019-01-30T14:35:18.280Z,56.47
2019-01-30T14:40:21.773Z,56.96
2019-01-30T14:45:19.567Z,56.82
2019-01-30T14:50:18.269Z,57.40
2019-01-30T14:55:13.342Z,58.26
2019-01-30T15:00:18.882Z,58.43
2019-01-30T15:05:22.230Z,59.52
2019-01-30T15:10:19.074Z,58.79
2019-01-30T15:15:25.672Z,59.43
2019-01-30T15:20:26.353Z,59.33
2019-01-30T15:25:24.173Z,60.03
2019-01-30T15:30:37.722Z,59.20
2019-01-30T15:35:33.933Z,57.89
2019-01-30T15:40:31.436Z,58.20
2019-01-30T15:45:26.629Z,57.96
2019-01-30T15:50:28.271Z,56.80
2019-01-30T15:55:23.111Z,56.47
2019-01-30T16:00:29.512Z,55.52
2019-01-30T16:05:24.245Z,55.70
2019-01-30T16:10:19.241Z,55.38
2019-01-30T16:15:27.393Z,55.80
2019-01-30T16:20:22.110Z,56.07
2019-01-30T16:25:18.949Z,56.09
2019-01-30T16:30:23.116Z,56.58
2019-01-30T16:35:25.533Z,56.71
2019-01-30T16:40:20.381Z,55.65
2019-01-30T16:45:24.652Z,55.75
2019-01-30T16:50:19.467Z,54.83
2019-01-30T16:55:18.174Z,54.43
2019-01-30T17:00:32.210Z,54.43
2019-01-30T17:05:28.311Z,54.07
2019-01-30T17:10:23.035Z,54.00
2019-01-30T17:15:24.442Z,54.35
2019-01-30T17:20:26.846Z,54.29
2019-01-30T17:25:21.838Z,54.48
2019-01-30T17:30:41.829Z,55.13
2019-01-30T17:35:37.100Z,55.51
2019-01-30T17:40:31.940Z,56.16
2019-01-30T17:45:26.549Z,56.65
2019-01-30T17:50:29.453Z,57.49
2019-01-30T17:55:26.189Z,58.26
2019-01-30T18:00:38.185Z,58.85
2019-01-30T18:05:32.850Z,59.26
2019-01-30T18:10:27.434Z,59.31
2019-01-30T18:15:22.096Z,59.85
2019-01-30T18:20:20.288Z,60.36
2019-01-30T18:25:17.593Z,60.85
2019-01-30T18:30:21.229Z,61.18
2019-01-30T18:35:16.439Z,61.27
2019-01-30T18:40:18.077Z,61.23
2019-01-30T18:45:20.363Z,61.46
2019-01-30T18:50:21.501Z,61.52
2019-01-30T18:55:16.611Z,61.81
2019-01-30T19:00:30.314Z,61.91
2019-01-30T19:05:25.245Z,62.31
2019-01-30T19:10:20.376Z,62.75
2019-01-30T19:15:19.479Z,62.75
2019-01-30T19:20:24.231Z,62.50
2019-01-30T19:25:19.037Z,62.69
2019-01-30T19:30:23.744Z,63.16
2019-01-30T19:35:18.638Z,63.49
2019-01-30T19:40:15.355Z,63.03
2019-01-30T19:45:14.586Z,63.20
2019-01-30T19:50:19.096Z,63.74
2019-01-30T19:55:13.879Z,64.04
2019-01-30T20:00:18.955Z,64.53
2019-01-30T20:05:15.384Z,65.15
2019-01-30T20:10:17.913Z,65.26
2019-01-30T20:15:12.996Z,65.55
2019-01-30T20:20:12.357Z,65.53
2019-01-30T20:25:14.497Z,64.84
2019-01-30T20:30:13.918Z,63.63
2019-01-30T20:35:10.117Z,62.94
2019-01-30T20:40:10.618Z,61.51
2019-01-30T20:45:08.798Z,61.58
2019-01-30T20:50:04.303Z,61.38
2019-01-30T20:54:59.845Z,60.64
2019-01-30T20:59:54.900Z,60.46
2019-01-30T21:04:49.513Z,60.37
2019-01-30T21:09:44.124Z,59.69
2019-01-30T21:14:38.730Z,59.24
2019-01-30T21:19:33.307Z,58.98
2019-01-30T21:24:27.897Z,59.31
2019-01-30T21:29:22.487Z,59.12
2019-01-30T21:34:17.070Z,58.81
2019-01-30T21:39:11.802Z,59.63
2019-01-30T21:44:06.996Z,60.00
2019-01-30T21:49:01.646Z,60.87
2019-01-30T21:53:56.244Z,60.42
2019-01-30T21:58:50.836Z,61.84
2019-01-30T22:03:45.420Z,62.02
2019-01-30T22:08:40.041Z,61.64
2019-01-30T22:13:34.639Z,61.46
2019-01-30T22:18:29.229Z,61.72
2019-01-30T22:23:23.854Z,62.68
2019-01-30T22:28:18.425Z,63.31
2019-01-30T22:33:13.079Z,63.97
2019-01-30T22:38:12.666Z,65.10
2019-01-30T22:43:04.292Z,65.08
2019-01-30T22:47:58.884Z,65.09
2019-01-30T22:52:53.567Z,65.23
2019-01-30T22:57:50.729Z,65.62
2019-01-30T23:02:44.884Z,65.73
2019-01-30T23:07:44.347Z,66.67
2019-01-30T23:13:04.672Z,66.73
2019-01-30T23:18:40.024Z,66.98
2019-01-30T23:24:12.364Z,67.18
2019-01-30T23:29:27.778Z,67.16
2019-01-30T23:34:35.846Z,66.39
2019-01-30T23:39:49.058Z,65.29
2019-01-30T23:44:54.179Z,65.79
2019-01-30T23:50:11.632Z,65.14
2019-01-30T23:55:31.655Z,64.57
